ADDS METAR Data INFO
IDs: Format: Raw Decoded Include TAF

Data at: 1405 UTC 24 Feb 2018

KSAR 241355Z AUTO 12008KT 5SM RA SCT006 BKN036 OVC060 07/07 A3002 RMK AO2 P0023 T00710071
KSAR 241335Z AUTO 00000KT 2 1/2SM RA OVC004 07/07 A3005 RMK AO2 P0018 T00670067
KSAR 241315Z AUTO 05004KT 7SM +RA OVC004 07/07 A3004 RMK AO2 P0005 T00660066
KSAR 241255Z AUTO 00000KT 5SM RA OVC004 07/07 A3005 RMK AO2 P0016 T00660066
KSAR 241235Z AUTO 11008KT 7SM +RA OVC004 07/07 A3004 RMK AO2 P0010 T00650065
KSAR 241215Z AUTO 13003KT 10SM RA OVC004 06/06 A3007 RMK AO2 P0002 T00630063
KSAR 241155Z AUTO 10007KT 5SM RA BKN006 BKN011 OVC055 06/06 A3004 RMK AO2 P0020 60086 70104 T00620062 10063 20057
KSAR 241135Z AUTO 09007KT 7SM -TSRA BKN006 BKN022 OVC055 06/06 A3006 RMK AO2 P0011 T00610061
KSAR 241115Z AUTO 00000KT 7SM -RA BKN006 BKN036 OVC045 06/06 A3009 RMK AO2 P0005 T00610061
KSAR 241055Z AUTO 09010KT 5SM RA SCT006 BKN036 OVC060 06/06 A3006 RMK AO2 LTG DSNT S AND SW P0016 T00600060
KSAR 241035Z AUTO 07011KT 7SM -RA BKN006 BKN027 OVC050 06/06 A3005 RMK AO2 LTG DSNT SW P0010 T00600060
KSAR 241015Z AUTO 09010KT 7SM RA BKN006 BKN022 OVC043 06/06 A3008 RMK AO2 LTG DSNT SW P0004 T00600060
KSAR 240955Z AUTO 07011KT 7SM -RA SCT006 BKN022 OVC085 06/06 A3006 RMK AO2 P0010 T00600060
KSAR 240935Z AUTO 08008KT 7SM -RA BKN006 OVC021 06/06 A3009 RMK AO2 P0008 T00600060
KSAR 240915Z AUTO 09004KT 7SM RA OVC006 06/06 A3013 RMK AO2 P0004 T00600060
KSAR 240855Z AUTO 06004KT 5SM RA BKN004 BKN019 OVC065 06/06 A3011 RMK AO2 P0020 60035 T00580058
KSAR 240835Z AUTO 00000KT 5SM RA BKN006 BKN019 OVC065 06/06 A3012 RMK AO2 P0013 T00570057
KSAR 240815Z AUTO 00000KT 5SM RA OVC006 06/06 A3013 RMK AO2 P0006 T00570057
KSAR 240755Z AUTO 00000KT 7SM RA OVC006 06/06 A3014 RMK AO2 P0007 T00580058
KSAR 240735Z AUTO 00000KT 10SM -RA OVC006 06/06 A3015 RMK AO2 P0003 T00580058
KSAR 240715Z AUTO 06007KT 10SM -RA OVC006 06/06 A3016 RMK AO2 LTG DSNT SW P0001 T00580058
KSAR 240655Z AUTO 06008KT 7SM -RA OVC004 06/06 A3016 RMK AO2 LTG DSNT SW P0007 T00600060
KSAR 240635Z AUTO 04004KT 7SM -RA BKN004 OVC008 06/06 A3019 RMK AO2 P0004 T00600060
KSAR 240615Z AUTO 02009KT 7SM -RA BKN006 OVC065 06/06 A3017 RMK AO2 P0003 T00610061
KSAR 240555Z AUTO 01006KT 10SM RA OVC004 07/07 A3021 RMK AO2 P0001 60018 T00650065 10090 20065
KSAR 240535Z AUTO 07008KT 10SM OVC004 07/07 A3021 RMK AO2 T00650065
KSAR 240515Z AUTO 03006KT 10SM -RA OVC004 07/07 A3022 RMK AO2 T00650065
KSAR 240455Z AUTO 01006KT 10SM RA OVC004 07/07 A3020 RMK AO2 P0001 T00660066
KSAR 240435Z AUTO 36007KT 7SM RA OVC004 07/07 A3020 RMK AO2 P0001 T00690069
KSAR 240415Z AUTO 01004KT 5SM -RA OVC004 08/08 A3023 RMK AO2 T00750075
KSAR 240355Z AUTO 34003KT 5SM -RA OVC006 08/08 A3023 RMK AO2 P0002 T00750075 401040067
KSAR 240335Z AUTO 00000KT 7SM RA BKN005 OVC011 08/08 A3024 RMK AO2 T00760076
KSAR 240315Z AUTO 33003KT 10SM -DZ SCT011 SCT045 OVC090 08/08 A3022 RMK AO2 T00770077
KSAR 240255Z AUTO 12003KT 7SM RA OVC080 08/08 A3021 RMK AO2 P0004 60013 T00770077
KSAR 240235Z AUTO 07003KT 10SM -RA OVC090 08/08 A3022 RMK AO2 P0003 T00780078
KSAR 240215Z AUTO 05004KT 10SM -RA OVC090 08/08 A3022 RMK AO2 P0001 T00780078
KSAR 240155Z AUTO 03003KT 7SM -RA OVC080 08/08 A3023 RMK AO2 P0007 T00790079
KSAR 240135Z AUTO 04003KT 10SM RA OVC080 08/08 A3024 RMK AO2 P0004 T00800080
KSAR 240115Z AUTO 01003KT 10SM -RA OVC090 08/08 A3026 RMK AO2 P0001 T00800080
KSAR 240055Z AUTO 04003KT 10SM -RA SCT070 SCT075 OVC090 08/08 A3027 RMK AO2 P0001 T00840084
KSAR 240035Z AUTO 00000KT 10SM RA BKN070 OVC090 09/08 A3029 RMK AO2 T00870080
KSAR 240015Z AUTO 00000KT 10SM -RA BKN018 BKN055 OVC090 09/08 A3029 RMK AO2 T00880083
KSAR 232355Z AUTO 00000KT 10SM OVC016 09/08 A3030 RMK AO2 T00910083 10104 20090
KSAR 232335Z AUTO 00000KT 10SM OVC016 09/08 A3028 RMK AO2 T00900082
KSAR 232315Z AUTO 00000KT 10SM OVC016 09/09 A3026 RMK AO2 T00930086
KSAR 232255Z AUTO 31003KT 10SM OVC016 10/09 A3027 RMK AO2 T00950085
KSAR 232235Z AUTO 00000KT 10SM BKN016 BKN055 OVC110 10/09 A3026 RMK AO2 T00960085
KSAR 232215Z AUTO 00000KT 10SM SCT016 BKN110 10/09 A3024 RMK AO2 T00970085
KSAR 232155Z AUTO 00000KT 10SM BKN016 BKN120 10/08 A3025 RMK AO2 T00970083
KSAR 232135Z AUTO 00000KT 10SM OVC016 10/09 A3026 RMK AO2 T00970085
KSAR 232115Z AUTO 32004KT 10SM OVC016 10/09 A3026 RMK AO2 T00980085
KSAR 232055Z AUTO 00000KT 10SM OVC016 10/09 A3026 RMK AO2 T01000085
KSAR 232035Z AUTO 29003KT 10SM OVC016 10/08 A3026 RMK AO2 T01000083
KSAR 232015Z AUTO 28003KT 10SM OVC016 10/09 A3026 RMK AO2 T01000086
KSAR 231955Z AUTO 31004KT 10SM OVC016 10/09 A3027 RMK AO2 T01000085
KSAR 231935Z AUTO 30003KT 10SM OVC016 10/09 A3027 RMK AO2 T01010087
KSAR 231915Z AUTO 32003KT 10SM OVC016 10/09 A3027 RMK AO2 T01000085
KSAR 231855Z AUTO 30004KT 10SM OVC016 10/09 A3027 RMK AO2 T01020087
KSAR 231835Z AUTO 31004KT 10SM OVC018 10/08 A3027 RMK AO2 T01020084
KSAR 231815Z AUTO 29005KT 10SM BKN014 10/08 A3029 RMK AO2 T01010083
KSAR 231755Z AUTO 24004KT 10SM BKN014 10/09 A3029 RMK AO2 T01000090 10100 20078
KSAR 231735Z AUTO 27004KT 10SM BKN014 10/09 A3029 RMK AO2 T00980088
KSAR 231715Z AUTO 26006KT 10SM OVC012 10/09 A3031 RMK AO2 T00960088
KSAR 231655Z AUTO 28005KT 10SM OVC012 09/09 A3031 RMK AO2 T00940087
KSAR 231635Z AUTO 28003KT 10SM OVC010 09/09 A3030 RMK AO2 T00920086
KSAR 231615Z AUTO 28005KT 10SM OVC010 09/09 A3030 RMK AO2 T00910090
KSAR 231555Z AUTO 26004KT 10SM OVC010 09/09 A3031 RMK AO2 T00880088
KSAR 231535Z AUTO 25005KT 10SM BKN010 09/09 A3030 RMK AO2 T00860086
KSAR 231515Z AUTO 27004KT 10SM SCT010 09/09 A3030 RMK AO2 T00850085
KSAR 231455Z AUTO 26005KT 10SM CLR 08/08 A3030 RMK AO2 T00830083
KSAR 231435Z AUTO 27006KT 10SM CLR 08/08 A3028 RMK AO2 T00800080
KSAR 231415Z AUTO 27005KT 10SM CLR 08/08 A3027 RMK AO2 T00800080
KSAR 231355Z AUTO 28003KT 10SM CLR 08/08 A3025 RMK AO2 T00780078
KSAR 231335Z AUTO 29006KT 10SM SCT033 08/08 A3024 RMK AO2 T00780078
KSAR 231315Z AUTO 28006KT 10SM SCT014 OVC033 08/08 A3025 RMK AO2 T00800080
KSAR 231255Z AUTO 27008KT 10SM SCT014 OVC031 08/08 A3026 RMK AO2 T00800080
KSAR 231235Z AUTO 27004KT 10SM BKN018 OVC029 08/08 A3025 RMK AO2 T00800080
KSAR 231215Z AUTO 25003KT 10SM OVC018 08/08 A3024 RMK AO2 T00790079
KSAR 231155Z AUTO 28004KT 10SM SCT005 SCT012 OVC018 08/08 A3023 RMK AO2 60007 70019 T00800080 10090 20071
KSAR 231135Z AUTO 28005KT 5SM -DZ BKN003 BKN007 OVC014 08/08 A3022 RMK AO2 T00800080
KSAR 231115Z AUTO 28004KT 3SM -DZ OVC003 08/08 A3020 RMK AO2 T00800080
KSAR 231055Z AUTO 29005KT 3SM -DZ OVC003 08/08 A3019 RMK AO2 P0003 T00800080
KSAR 231035Z AUTO 28005KT 3SM DZ OVC003 08/08 A3018 RMK AO2 P0002 T00800080
KSAR 231015Z AUTO 29006KT 2SM +DZ OVC003 08/08 A3018 RMK AO2 P0002 T00820082
KSAR 230955Z AUTO 27005KT 2SM +RA OVC003 09/09 A3016 RMK AO2 T00880088
KSAR 230935Z AUTO 25005G08KT 4SM BR OVC003 09/09 A3016 RMK AO2 T00880088
KSAR 230915Z AUTO 28005KT 7SM OVC003 09/09 A3015 RMK AO2 T00860086
KSAR 230855Z AUTO 19004KT 7SM OVC003 09/09 A3014 RMK AO2 60004 T00860086
KSAR 230835Z AUTO 15006KT 10SM OVC003 08/08 A3013 RMK AO2 T00820082
KSAR 230815Z AUTO 16005KT 10SM OVC003 08/08 A3015 RMK AO2 T00810081
KSAR 230755Z AUTO 15007KT 10SM OVC003 08/08 A3016 RMK AO2 T00800080
KSAR 230735Z AUTO 15006KT 10SM OVC003 08/08 A3017 RMK AO2 T00800080
KSAR 230715Z AUTO 14008KT 10SM OVC003 08/08 A3017 RMK AO2 T00800080
KSAR 230655Z AUTO 14008KT 10SM -DZ OVC003 08/08 A3018 RMK AO2 LTG DSNT SE P0004 T00780078
KSAR 230635Z AUTO 14009KT 7SM -RA OVC003 08/08 A3018 RMK AO2 LTG DSNT S P0003 T00750075
KSAR 230615Z AUTO 13011G14KT 7SM RA OVC003 07/07 A3019 RMK AO2 P0003 T00730073
KSAR 230555Z AUTO 13009KT 7SM OVC003 07/07 A3020 RMK AO2 P0001 60010 T00710071 10071 20065
KSAR 230535Z AUTO 12011G16KT 5SM -RA OVC003 07/07 A3020 RMK AO2 P0001 T00700070
KSAR 230515Z AUTO 12009KT 5SM -RA OVC003 07/07 A3022 RMK AO2 T00680068
KSAR 230455Z AUTO 13007KT 7SM BKN003 BKN014 OVC100 07/07 A3025 RMK AO2 P0002 T00680068
KSAR 230435Z AUTO 10006KT 7SM -RA SCT003 BKN033 OVC100 07/07 A3024 RMK AO2 P0002 T00670067
KSAR 230415Z AUTO 03003KT 7SM -RA BKN003 BKN028 OVC080 07/07 A3026 RMK AO2 P0001 T00670067
KSAR 230355Z AUTO 07006KT 7SM RA OVC003 07/07 A3026 RMK AO2 P0003 T00670067 400720008
KSAR 230335Z AUTO 10007KT 7SM RA OVC003 07/07 A3028 RMK AO2 P0002 T00660066
KSAR 230315Z AUTO 12008KT 5SM RA OVC005 07/07 A3029 RMK AO2 P0001 T00660066
KSAR 230255Z AUTO 15003KT 7SM -RA OVC005 07/07 A3032 RMK AO2 P0001 60004 T00660066
KSAR 230235Z AUTO 17005KT 5SM BR OVC005 07/07 A3033 RMK AO2 T00650065
KSAR 230215Z AUTO 04004KT 5SM -DZ OVC007 07/07 A3029 RMK AO2 T00650065